createdAt,value
2022-12-23T00:03:22.110Z,19.17
2022-12-23T00:08:15.832Z,19.04
2022-12-23T00:13:29.195Z,19.15
2022-12-23T00:18:23.183Z,19.15
2022-12-23T00:23:16.491Z,19.09
2022-12-23T00:28:14.956Z,19.07
2022-12-23T00:33:09.227Z,18.96
2022-12-23T00:38:03.250Z,19.05
2022-12-23T00:42:56.764Z,18.91
2022-12-23T00:48:07.632Z,19.00
2022-12-23T00:53:02.094Z,18.96
2022-12-23T00:57:55.538Z,18.94
2022-12-23T01:03:07.105Z,18.92
2022-12-23T01:08:01.321Z,18.79
2022-12-23T01:12:54.273Z,18.76
2022-12-23T01:17:47.848Z,18.83
2022-12-23T01:22:41.519Z,18.68
2022-12-23T01:27:35.349Z,18.55
2022-12-23T01:32:28.930Z,18.73
2022-12-23T01:37:22.485Z,18.67
2022-12-23T01:42:36.470Z,18.56
2022-12-23T01:47:41.002Z,18.66
2022-12-23T01:53:17.068Z,18.66
2022-12-23T01:58:18.772Z,18.63
2022-12-23T02:03:43.382Z,18.67
2022-12-23T02:08:55.642Z,18.51
2022-12-23T02:14:25.282Z,18.63
2022-12-23T02:19:38.124Z,18.60
2022-12-23T02:24:36.851Z,18.56
2022-12-23T02:29:33.039Z,18.57
2022-12-23T02:35:05.555Z,18.44
2022-12-23T02:40:11.365Z,18.50
2022-12-23T02:45:13.266Z,18.49
2022-12-23T02:50:18.051Z,18.47
2022-12-23T02:55:17.083Z,18.36
2022-12-23T03:00:12.585Z,18.31
2022-12-23T03:05:05.854Z,18.39
2022-12-23T03:10:23.660Z,18.40
2022-12-23T03:15:20.178Z,18.39
2022-12-23T03:20:55.078Z,18.37
2022-12-23T03:26:24.175Z,18.35
2022-12-23T03:31:23.816Z,18.28
2022-12-23T03:36:39.077Z,18.21
2022-12-23T03:41:36.224Z,18.18
2022-12-23T03:46:36.023Z,18.15
2022-12-23T03:51:48.726Z,18.13
2022-12-23T03:56:50.283Z,18.16
2022-12-23T04:01:42.815Z,18.24
2022-12-23T04:06:50.638Z,18.19
2022-12-23T04:11:44.044Z,18.05
2022-12-23T04:16:38.223Z,18.19
2022-12-23T04:21:31.804Z,18.15
2022-12-23T04:26:25.329Z,18.08
2022-12-23T04:31:18.833Z,18.11
2022-12-23T04:36:12.072Z,17.96
2022-12-23T04:41:05.936Z,18.07
2022-12-23T04:46:00.238Z,17.83
2022-12-23T04:50:53.892Z,18.03
2022-12-23T04:55:50.465Z,17.99
2022-12-23T05:00:44.349Z,17.99
2022-12-23T05:05:43.598Z,17.89
2022-12-23T05:10:36.712Z,17.98
2022-12-23T05:15:33.472Z,17.92
2022-12-23T05:20:26.030Z,17.96
2022-12-23T05:25:19.591Z,17.82
2022-12-23T05:30:13.573Z,17.85
2022-12-23T05:35:08.118Z,17.97
2022-12-23T05:40:00.703Z,17.96
2022-12-23T05:44:54.236Z,17.85
2022-12-23T05:49:48.344Z,17.97
2022-12-23T05:54:42.265Z,18.04
2022-12-23T05:59:36.093Z,17.98
2022-12-23T06:04:29.871Z,18.06
2022-12-23T06:09:22.906Z,18.08
2022-12-23T06:14:28.373Z,18.08
2022-12-23T06:19:22.312Z,17.95
2022-12-23T06:24:17.605Z,17.93
2022-12-23T06:29:11.787Z,17.97
2022-12-23T06:34:06.031Z,18.01
2022-12-23T06:38:58.721Z,18.09
2022-12-23T06:43:54.395Z,18.12
2022-12-23T06:48:49.051Z,18.11
2022-12-23T06:53:43.433Z,17.97
2022-12-23T06:58:36.961Z,17.98
2022-12-23T07:03:30.781Z,18.14
2022-12-23T07:08:24.434Z,18.07
2022-12-23T07:13:17.898Z,18.05
2022-12-23T07:18:11.869Z,18.19
2022-12-23T07:23:05.759Z,18.09
2022-12-23T07:27:59.631Z,18.09
2022-12-23T07:32:53.650Z,18.19
2022-12-23T07:37:51.529Z,18.21
2022-12-23T07:42:46.746Z,18.09
2022-12-23T07:47:41.100Z,18.22
2022-12-23T07:52:35.721Z,18.21
2022-12-23T07:57:29.427Z,18.19
2022-12-23T08:02:25.970Z,18.19
2022-12-23T08:07:19.896Z,18.23
2022-12-23T08:12:14.197Z,18.22
2022-12-23T08:17:07.574Z,18.01
2022-12-23T08:22:02.115Z,18.18
2022-12-23T08:26:55.979Z,18.11
2022-12-23T08:31:51.209Z,18.23
2022-12-23T08:36:44.971Z,18.14
2022-12-23T08:41:41.108Z,18.22
2022-12-23T08:46:35.143Z,18.15
2022-12-23T08:51:28.916Z,18.24
2022-12-23T08:56:24.152Z,18.20
2022-12-23T09:01:21.005Z,18.27
2022-12-23T09:06:28.276Z,18.28
2022-12-23T09:11:24.323Z,18.25
2022-12-23T09:16:18.808Z,18.20
2022-12-23T09:21:18.416Z,18.29
2022-12-23T09:26:12.295Z,18.27
2022-12-23T09:31:13.334Z,18.20
2022-12-23T09:36:07.266Z,18.32
2022-12-23T09:41:12.968Z,18.30
2022-12-23T09:46:25.674Z,18.18
2022-12-23T09:51:22.790Z,18.31
2022-12-23T09:56:28.400Z,18.32
2022-12-23T10:01:44.788Z,18.10
2022-12-23T10:06:41.525Z,18.19
2022-12-23T10:11:38.516Z,18.28
2022-12-23T10:16:38.787Z,18.19
2022-12-23T10:21:47.549Z,18.14
2022-12-23T10:27:03.208Z,18.37
2022-12-23T10:32:17.702Z,18.24
2022-12-23T10:37:28.815Z,18.38
2022-12-23T10:42:37.711Z,18.26
2022-12-23T10:47:48.201Z,18.39
2022-12-23T10:52:49.597Z,18.39
2022-12-23T10:57:42.596Z,18.34
2022-12-23T11:02:51.175Z,18.37
2022-12-23T11:07:48.132Z,18.37
2022-12-23T11:12:49.823Z,18.35
2022-12-23T11:17:43.508Z,18.36
2022-12-23T11:22:37.189Z,18.17
2022-12-23T11:27:30.422Z,18.39
2022-12-23T11:32:27.003Z,18.38
2022-12-23T11:37:43.948Z,18.40
2022-12-23T11:42:37.777Z,18.30
2022-12-23T11:47:42.089Z,18.41
2022-12-23T11:52:35.365Z,18.41
2022-12-23T11:57:34.445Z,18.42
2022-12-23T12:02:45.328Z,18.29
2022-12-23T12:07:46.966Z,18.40
2022-12-23T12:12:40.830Z,18.22
2022-12-23T12:17:40.526Z,18.43
2022-12-23T12:22:41.848Z,18.29
2022-12-23T12:27:40.033Z,18.42
2022-12-23T12:32:43.765Z,18.41
2022-12-23T12:37:44.024Z,18.37
2022-12-23T12:42:48.518Z,18.37
2022-12-23T12:48:06.046Z,18.41
2022-12-23T12:53:21.682Z,18.43
2022-12-23T12:58:24.518Z,18.47
2022-12-23T13:03:33.129Z,18.43
2022-12-23T13:09:01.337Z,18.45
2022-12-23T13:14:19.990Z,18.47
2022-12-23T13:19:31.838Z,18.45
2022-12-23T13:25:03.993Z,18.49
2022-12-23T13:30:24.119Z,18.47
2022-12-23T13:35:41.504Z,18.52
2022-12-23T13:40:44.508Z,18.49
2022-12-23T13:45:40.991Z,18.39
2022-12-23T13:50:43.597Z,18.50
2022-12-23T13:55:45.841Z,18.54
2022-12-23T14:00:41.590Z,18.49
2022-12-23T14:05:45.667Z,18.53
2022-12-23T14:10:40.233Z,18.53
2022-12-23T14:15:44.232Z,18.31
2022-12-23T14:21:11.117Z,18.53
2022-12-23T14:26:34.896Z,18.53
2022-12-23T14:31:31.280Z,18.40
2022-12-23T14:36:27.166Z,18.41
2022-12-23T14:41:24.937Z,18.46
2022-12-23T14:46:35.700Z,18.50
2022-12-23T14:51:38.697Z,18.50
2022-12-23T14:56:43.715Z,18.46
2022-12-23T15:01:43.809Z,18.39
2022-12-23T15:06:39.785Z,18.48
2022-12-23T15:11:39.048Z,18.52
2022-12-23T15:16:38.600Z,18.58
2022-12-23T15:21:34.043Z,18.57
2022-12-23T15:26:30.803Z,18.58
2022-12-23T15:31:23.968Z,18.60
2022-12-23T15:36:35.846Z,18.65
2022-12-23T15:41:31.374Z,18.78
2022-12-23T15:46:30.187Z,18.77
2022-12-23T15:51:49.992Z,18.86
2022-12-23T15:56:45.404Z,18.88
2022-12-23T16:01:42.402Z,18.82
2022-12-23T16:06:37.583Z,18.93
2022-12-23T16:11:55.471Z,18.96
2022-12-23T16:16:48.554Z,18.87
2022-12-23T16:21:42.735Z,18.89
2022-12-23T16:26:51.135Z,18.93
2022-12-23T16:31:57.566Z,19.07
2022-12-23T16:36:55.337Z,19.02
2022-12-23T16:41:49.380Z,19.04
2022-12-23T16:46:48.331Z,19.10
2022-12-23T16:51:41.285Z,19.11
2022-12-23T16:56:37.320Z,19.09
2022-12-23T17:01:39.699Z,19.15
2022-12-23T17:06:33.761Z,19.14
2022-12-23T17:11:42.465Z,19.09
2022-12-23T17:16:35.425Z,19.14
2022-12-23T17:21:34.535Z,19.06
2022-12-23T17:26:28.596Z,19.11
2022-12-23T17:31:26.486Z,19.15
2022-12-23T17:36:20.999Z,19.14
2022-12-23T17:41:32.326Z,18.96
2022-12-23T17:46:27.791Z,18.91
2022-12-23T17:51:23.597Z,18.99
2022-12-23T17:56:20.253Z,19.02
2022-12-23T18:01:32.500Z,18.93
2022-12-23T18:06:27.803Z,18.82
2022-12-23T18:11:42.531Z,18.81
2022-12-23T18:16:35.725Z,18.76
2022-12-23T18:21:30.372Z,18.69
2022-12-23T18:26:23.482Z,18.67
2022-12-23T18:31:46.718Z,18.53
2022-12-23T18:36:43.669Z,18.63
2022-12-23T18:41:37.177Z,18.66
2022-12-23T18:46:30.267Z,18.62
2022-12-23T18:51:23.883Z,18.52
2022-12-23T18:56:19.905Z,18.59
2022-12-23T19:01:17.922Z,18.56
2022-12-23T19:06:13.879Z,18.56
2022-12-23T19:11:19.393Z,18.51
2022-12-23T19:16:16.148Z,18.63
2022-12-23T19:21:10.829Z,18.65
2022-12-23T19:26:06.551Z,18.70
2022-12-23T19:31:00.154Z,18.71
2022-12-23T19:35:53.558Z,18.69
2022-12-23T19:40:56.373Z,18.72
2022-12-23T19:46:03.770Z,18.75
2022-12-23T19:51:01.972Z,18.72
2022-12-23T19:56:03.845Z,18.63
2022-12-23T20:01:18.856Z,18.55
2022-12-23T20:06:39.014Z,18.73
2022-12-23T20:11:37.876Z,18.82
2022-12-23T20:16:31.285Z,18.83
2022-12-23T20:21:25.545Z,18.83
2022-12-23T20:26:20.651Z,18.63
2022-12-23T20:31:15.990Z,18.85
2022-12-23T20:36:15.391Z,18.79
2022-12-23T20:41:11.182Z,18.90
2022-12-23T20:46:06.504Z,18.93
2022-12-23T20:51:08.379Z,18.92
2022-12-23T20:56:06.014Z,18.89
2022-12-23T21:01:11.331Z,18.91
2022-12-23T21:06:06.264Z,18.93
2022-12-23T21:11:00.282Z,18.81
2022-12-23T21:15:54.166Z,18.96
2022-12-23T21:20:47.906Z,18.91
2022-12-23T21:25:41.097Z,19.03
2022-12-23T21:30:35.792Z,19.03
2022-12-23T21:35:30.253Z,18.81
2022-12-23T21:40:24.255Z,18.90
2022-12-23T21:45:18.505Z,19.01
2022-12-23T21:50:11.549Z,18.94
2022-12-23T21:55:06.381Z,19.02
2022-12-23T22:00:00.441Z,18.91
2022-12-23T22:04:54.069Z,18.96
2022-12-23T22:09:47.791Z,18.92
2022-12-23T22:14:41.196Z,19.04
2022-12-23T22:19:38.802Z,19.01
2022-12-23T22:24:32.647Z,18.98
2022-12-23T22:29:26.632Z,19.12
2022-12-23T22:34:21.669Z,19.05
2022-12-23T22:39:20.454Z,19.05
2022-12-23T22:44:15.547Z,19.05
2022-12-23T22:49:17.052Z,19.02
2022-12-23T22:54:10.858Z,19.03
2022-12-23T22:59:05.584Z,18.95
2022-12-23T23:04:00.100Z,18.97
2022-12-23T23:08:54.995Z,18.98
2022-12-23T23:13:49.242Z,18.96
2022-12-23T23:18:41.907Z,18.84
2022-12-23T23:23:35.693Z,18.92
2022-12-23T23:28:29.834Z,18.88
2022-12-23T23:33:22.106Z,18.97
2022-12-23T23:38:15.384Z,18.92
2022-12-23T23:43:09.290Z,18.90
2022-12-23T23:48:02.922Z,18.90
2022-12-23T23:52:56.539Z,18.78
2022-12-23T23:57:49.828Z,18.63
